Time;durP1;ratioP1;P1;durP2;ratioP2;P2;SDS_P1;SDS_P2;PMS_P1;PMS_P2;Temp;Humidity;BMP_temperature;BMP_pressure;BME280_temperature;BME280_humidity;BME280_pressure;Samples;Min_cycle;Max_cycle;Signal;HPM_P1;HPM_P2
2021/10/15 00:00:07;;;;;;;10.02;3.55;;;;;;;13.22;74.27;101662.69;4991689;28;20058;-47
2021/10/15 00:02:41;;;;;;;7.38;3.78;;;;;;;13.21;75.08;101652.84;4991773;28;20402;-47
2021/10/15 00:05:09;;;;;;;7.70;3.85;;;;;;;13.19;75.09;101646.81;5006713;28;20487;-48
2021/10/15 00:07:36;;;;;;;7.22;4.05;;;;;;;13.19;74.95;101655.00;4991819;28;20058;-48
2021/10/15 00:10:05;;;;;;;7.93;3.53;;;;;;;13.16;75.29;101650.06;4991936;28;20043;-47
2021/10/15 00:12:35;;;;;;;8.18;3.67;;;;;;;13.17;75.59;101651.72;4991792;28;20430;-48
2021/10/15 00:15:03;;;;;;;8.77;3.92;;;;;;;13.16;75.44;101644.59;4990773;28;20516;-48
2021/10/15 00:17:31;;;;;;;7.20;3.60;;;;;;;13.15;75.16;101642.94;4991955;28;20046;-48
2021/10/15 00:19:58;;;;;;;7.45;3.78;;;;;;;13.16;75.46;101650.06;4991843;28;20038;-45
2021/10/15 00:22:26;;;;;;;9.25;4.13;;;;;;;13.17;75.08;101640.75;4991795;28;20050;-46
2021/10/15 00:24:53;;;;;;;7.47;3.88;;;;;;;13.19;74.88;101643.25;4990920;28;20053;-47
2021/10/15 00:27:21;;;;;;;5.88;3.63;;;;;;;13.19;75.21;101638.59;4991402;28;20489;-51
2021/10/15 00:29:48;;;;;;;8.25;3.72;;;;;;;13.21;74.78;101635.59;4991819;28;20058;-50
2021/10/15 00:32:16;;;;;;;8.15;3.38;;;;;;;13.22;74.69;101631.75;4987191;28;20074;-50
2021/10/15 00:34:43;;;;;;;10.85;4.20;;;;;;;13.19;74.84;101627.66;4989333;28;20404;-50
2021/10/15 00:37:12;;;;;;;5.60;3.28;;;;;;;13.17;74.25;101621.59;4991731;28;20046;-49
2021/10/15 00:39:39;;;;;;;11.40;3.97;;;;;;;13.14;74.42;101613.94;5005848;28;20042;-48
2021/10/15 00:42:12;;;;;;;9.35;4.00;;;;;;;13.13;74.20;101612.31;4991559;28;20126;-48
2021/10/15 00:44:40;;;;;;;6.65;3.45;;;;;;;13.12;74.46;101609.81;4991217;28;20096;-46
2021/10/15 00:47:08;;;;;;;6.55;3.50;;;;;;;13.13;74.85;101608.72;4991927;28;20054;-47
2021/10/15 00:49:35;;;;;;;10.68;3.88;;;;;;;13.16;74.79;101605.47;4992328;28;20110;-47
2021/10/15 00:52:05;;;;;;;9.68;3.88;;;;;;;13.13;74.44;101601.38;4991849;28;20042;-48
2021/10/15 00:54:33;;;;;;;7.15;3.45;;;;;;;13.13;74.72;101600.50;5005303;28;20463;-47
2021/10/15 00:57:00;;;;;;;6.60;3.47;;;;;;;13.10;74.73;101596.41;4993038;28;20043;-47
2021/10/15 00:59:28;;;;;;;10.07;4.20;;;;;;;13.10;74.17;101584.63;4995672;28;20050;-46
2021/10/15 01:01:56;;;;;;;7.03;3.53;;;;;;;13.07;74.61;101586.00;4995850;28;20409;-47
2021/10/15 01:04:44;;;;;;;11.75;3.85;;;;;;;13.04;75.50;101575.59;4994592;28;20115;-44
2021/10/15 01:07:13;;;;;;;10.35;4.30;;;;;;;13.05;75.10;101579.16;4995498;28;20058;-47
2021/10/15 01:09:41;;;;;;;7.53;3.90;;;;;;;13.04;75.70;101581.06;5010320;28;20444;-47
2021/10/15 01:12:10;;;;;;;6.85;3.60;;;;;;;13.02;75.83;101569.56;4995223;28;20050;-47
2021/10/15 01:14:37;;;;;;;7.13;3.58;;;;;;;13.02;75.67;101575.03;4995438;28;20051;-47
2021/10/15 01:17:06;;;;;;;7.35;3.92;;;;;;;13.02;76.29;101569.56;4994730;28;20053;-47
2021/10/15 01:19:34;;;;;;;10.07;4.43;;;;;;;13.01;75.93;101570.63;4995198;28;20042;-45
2021/10/15 01:22:04;;;;;;;8.50;4.50;;;;;;;12.98;76.10;101560.22;4995324;28;20149;-49
2021/10/15 01:24:33;;;;;;;8.70;4.28;;;;;;;12.97;76.64;101558.59;4994693;28;20046;-47
2021/10/15 01:27:06;;;;;;;9.00;3.78;;;;;;;12.95;76.52;101558.84;4994730;28;20038;-48
2021/10/15 01:29:34;;;;;;;9.02;3.92;;;;;;;12.96;76.58;101562.41;4995312;28;20070;-48
2021/10/15 01:32:04;;;;;;;8.27;4.18;;;;;;;12.94;76.35;101554.47;4995412;28;20034;-48
2021/10/15 01:34:31;;;;;;;7.55;4.13;;;;;;;12.95;76.85;101552.56;4994768;28;20055;-48
2021/10/15 01:36:59;;;;;;;9.75;4.20;;;;;;;12.93;76.47;101549.25;4994890;28;20053;-45
2021/10/15 01:39:26;;;;;;;8.85;3.78;;;;;;;12.93;76.88;101549.25;4994590;28;20053;-48
2021/10/15 01:41:54;;;;;;;9.55;4.80;;;;;;;12.92;76.99;101544.91;4994672;28;20038;-50
2021/10/15 01:44:23;;;;;;;12.73;4.72;;;;;;;12.91;77.65;101543.22;4994638;28;20053;-47
2021/10/15 01:46:50;;;;;;;8.30;4.18;;;;;;;12.91;77.71;101545.97;4994677;28;20093;-48
2021/10/15 01:49:18;;;;;;;10.63;4.13;;;;;;;12.89;77.23;101540.78;4994776;28;20046;-49
2021/10/15 01:51:45;;;;;;;8.15;4.13;;;;;;;12.91;77.75;101535.03;4995015;28;20030;-47
2021/10/15 01:54:32;;;;;;;8.13;4.00;;;;;;;12.89;77.73;101538.03;4994328;28;20093;-48
2021/10/15 01:56:59;;;;;;;8.18;3.92;;;;;;;12.88;77.39;101527.38;4994517;28;20425;-48
2021/10/15 01:59:27;;;;;;;7.75;3.80;;;;;;;12.87;78.14;101532.00;4994735;28;20049;-44
2021/10/15 02:01:55;;;;;;;9.40;4.18;;;;;;;12.86;78.12;101526.81;4994504;28;20039;-50
2021/10/15 02:04:22;;;;;;;7.57;3.97;;;;;;;12.85;77.73;101527.91;4994456;28;20050;-48
2021/10/15 02:06:50;;;;;;;10.13;4.45;;;;;;;12.86;78.11;101535.00;4994603;28;20460;-48
2021/10/15 02:09:17;;;;;;;9.80;4.30;;;;;;;12.87;77.91;101522.97;4993425;28;20101;-48
2021/10/15 02:11:45;;;;;;;11.55;4.70;;;;;;;12.85;78.13;101527.91;5009569;28;20038;-48
2021/10/15 02:14:12;;;;;;;9.52;4.63;;;;;;;12.83;78.56;101530.06;4991446;28;20038;-48
2021/10/15 02:16:40;;;;;;;11.27;4.35;;;;;;;12.85;78.91;101522.44;5013793;28;20038;-47
2021/10/15 02:19:08;;;;;;;9.15;4.32;;;;;;;12.84;78.92;101520.78;5001396;28;20493;-48
2021/10/15 02:21:36;;;;;;;8.32;4.10;;;;;;;12.87;78.50;101517.50;5013903;28;20164;-48
2021/10/15 02:24:03;;;;;;;11.95;4.80;;;;;;;12.88;78.46;101510.94;5005926;28;20100;-46
2021/10/15 02:26:31;;;;;;;7.70;4.00;;;;;;;12.88;78.88;101500.00;5013982;28;20049;-47
2021/10/15 02:29:17;;;;;;;9.30;4.20;;;;;;;12.86;78.37;101504.91;5011927;28;20050;-48
2021/10/15 02:31:44;;;;;;;;;;;;;;;12.87;79.15;101498.34;5013719;28;20117;-47
2021/10/15 02:34:12;;;;;;;9.93;4.78;;;;;;;12.83;79.17;101486.31;5009345;28;20279;-47
2021/10/15 02:36:40;;;;;;;8.32;3.97;;;;;;;12.81;79.18;101491.22;5007938;28;20043;-47
2021/10/15 02:39:08;;;;;;;9.40;4.30;;;;;;;12.83;79.03;101481.66;4997648;28;20402;-48
2021/10/15 02:41:37;;;;;;;9.80;4.57;;;;;;;12.82;79.29;101482.78;5005534;28;20409;-47
2021/10/15 02:44:07;;;;;;;10.55;4.53;;;;;;;12.78;79.42;101477.00;5008183;28;20575;-47
2021/10/15 02:46:35;;;;;;;8.75;4.57;;;;;;;12.81;79.54;101472.09;5004488;28;20049;-49
2021/10/15 02:49:04;;;;;;;7.75;3.92;;;;;;;12.82;79.70;101474.56;5013235;28;20038;-48
2021/10/15 02:51:32;;;;;;;10.20;4.43;;;;;;;12.81;79.11;101472.09;5002577;28;20100;-44
2021/10/15 02:54:01;;;;;;;9.82;5.10;;;;;;;12.82;79.98;101468.25;5010115;28;20037;-47
2021/10/15 02:56:29;;;;;;;13.68;4.68;;;;;;;12.79;79.99;101454.03;5013003;28;20045;-50
2021/10/15 02:58:57;;;;;;;8.70;4.20;;;;;;;12.83;79.87;101453.50;5009008;28;20044;-47
2021/10/15 03:01:25;;;;;;;10.75;5.10;;;;;;;12.82;79.89;101451.84;5013388;28;20447;-49
2021/10/15 03:03:52;;;;;;;11.63;4.75;;;;;;;12.80;79.75;101449.38;5001137;28;20044;-48
2021/10/15 03:06:20;;;;;;;10.93;4.70;;;;;;;12.78;80.08;101452.38;5012066;28;20041;-47
2021/10/15 03:08:47;;;;;;;8.75;4.90;;;;;;;12.78;80.39;101451.56;5007425;28;20042;-48
2021/10/15 03:11:15;;;;;;;10.13;5.18;;;;;;;12.77;80.72;101450.75;4998612;28;20041;-47
2021/10/15 03:13:43;;;;;;;9.90;4.63;;;;;;;12.79;80.33;101436.78;5008025;28;20043;-47
2021/10/15 03:16:10;;;;;;;15.18;4.80;;;;;;;12.79;80.64;101450.47;5008759;28;20057;-44
2021/10/15 03:18:38;;;;;;;8.07;4.68;;;;;;;12.83;81.43;101448.03;5013135;28;20053;-48
2021/10/15 03:21:06;;;;;;;11.20;4.90;;;;;;;12.81;81.71;101445.56;5000900;28;20057;-47
2021/10/15 03:23:34;;;;;;;10.05;4.88;;;;;;;12.79;81.22;101450.47;5002079;28;20077;-46
2021/10/15 03:26:02;;;;;;;8.80;4.50;;;;;;;12.78;81.73;101446.91;5012756;28;20054;-50
2021/10/15 03:28:30;;;;;;;12.13;5.82;;;;;;;12.79;81.42;101445.84;5012757;28;20049;-47
2021/10/15 03:30:57;;;;;;;11.52;4.88;;;;;;;12.79;81.59;101443.09;5008348;28;20054;-47
2021/10/15 03:33:25;;;;;;;11.18;5.32;;;;;;;12.81;82.09;101451.03;5003858;28;20444;-47
2021/10/15 03:35:52;;;;;;;12.85;5.15;;;;;;;12.82;81.81;101443.63;5005673;28;20042;-47
2021/10/15 03:38:20;;;;;;;10.23;5.40;;;;;;;12.78;81.34;101433.25;4997172;28;20050;-45
2021/10/15 03:40:48;;;;;;;9.43;4.80;;;;;;;12.77;81.95;101430.75;5009582;28;20069;-48
2021/10/15 03:43:15;;;;;;;10.27;5.20;;;;;;;12.78;82.02;101419.56;5008028;28;20042;-48
2021/10/15 03:45:43;;;;;;;10.45;5.13;;;;;;;12.78;81.86;101410.53;5012431;28;20068;-48
2021/10/15 03:48:11;;;;;;;9.73;4.78;;;;;;;12.74;82.43;101407.50;5012198;28;20045;-46
2021/10/15 03:50:39;;;;;;;8.90;5.00;;;;;;;12.77;82.13;101407.00;5007722;28;20041;-47
2021/10/15 03:53:07;;;;;;;9.98;5.47;;;;;;;12.78;82.04;101405.91;4992388;28;20069;-48
2021/10/15 03:55:35;;;;;;;8.27;4.93;;;;;;;12.78;82.08;101419.56;4997370;28;20038;-46
2021/10/15 03:58:03;;;;;;;11.73;5.45;;;;;;;12.79;82.50;101418.50;5012443;28;20041;-46
2021/10/15 04:00:30;;;;;;;9.75;5.07;;;;;;;12.77;81.92;101412.47;5012216;28;20038;-48
2021/10/15 04:02:58;;;;;;;9.43;4.85;;;;;;;12.76;82.56;101407.25;5002245;28;20073;-45
2021/10/15 04:05:26;;;;;;;9.98;5.20;;;;;;;12.73;82.17;101411.34;5011615;28;20049;-47
2021/10/15 04:07:54;;;;;;;11.82;5.38;;;;;;;12.72;82.24;101417.91;5008318;28;20042;-47
2021/10/15 04:10:21;;;;;;;11.23;5.70;;;;;;;12.71;82.63;101412.72;5012023;28;20451;-47
2021/10/15 04:13:09;;;;;;;12.38;5.53;;;;;;;12.71;82.92;101402.59;5005567;28;20054;-47
2021/10/15 04:16:00;;;;;;;9.05;4.57;;;;;;;12.73;82.72;101394.94;5011676;28;20042;-49
2021/10/15 04:18:47;;;;;;;7.93;4.65;;;;;;;12.74;83.07;101390.28;5011622;28;20054;-47
2021/10/15 04:21:35;;;;;;;10.73;5.53;;;;;;;12.73;83.39;101405.06;5003951;28;20181;-46
2021/10/15 04:24:03;;;;;;;11.15;4.75;;;;;;;12.72;83.52;101398.78;5000737;28;20069;-48
2021/10/15 04:26:50;;;;;;;11.32;5.82;;;;;;;12.72;83.07;101395.19;5011522;28;20558;-47
2021/10/15 04:29:38;;;;;;;11.30;5.57;;;;;;;12.70;83.33;101390.03;5011515;28;20501;-45
2021/10/15 04:32:26;;;;;;;9.80;4.90;;;;;;;12.70;83.99;101392.75;4996763;28;20068;-50
2021/10/15 04:35:13;;;;;;;10.00;4.93;;;;;;;12.76;84.26;101390.84;4995697;28;20069;-47
2021/10/15 04:38:20;;;;;;;9.80;4.97;;;;;;;12.81;83.80;101384.56;5000613;28;20575;-47
2021/10/15 04:41:08;;;;;;;11.93;5.72;;;;;;;12.78;83.65;101372.25;4992926;28;20113;-48
2021/10/15 04:43:56;;;;;;;10.25;6.03;;;;;;;12.76;83.81;101388.13;5007757;28;20038;-48
2021/10/15 04:46:44;;;;;;;11.88;5.90;;;;;;;12.72;83.56;101398.78;5012191;28;20489;-46
2021/10/15 04:49:31;;;;;;;10.27;5.22;;;;;;;12.71;84.14;101396.31;5018137;28;20042;-48
2021/10/15 04:52:19;;;;;;;14.52;5.32;;;;;;;12.73;84.15;101392.22;5011932;28;20049;-48
2021/10/15 04:55:07;;;;;;;10.75;5.95;;;;;;;12.75;84.35;101386.47;5017809;28;20089;-47
2021/10/15 04:57:47;;;;;;;11.43;5.05;;;;;;;12.74;84.07;101385.63;5016844;28;20045;-45
2021/10/15 05:00:19;;;;;;;12.25;5.38;;;;;;;12.77;84.70;101384.28;5017752;28;20046;-48
2021/10/15 05:02:49;;;;;;;9.25;4.97;;;;;;;12.77;84.51;101371.44;5009668;28;20097;-47
2021/10/15 05:05:18;;;;;;;12.57;5.28;;;;;;;12.79;84.25;101379.38;5008164;28;20081;-48
2021/10/15 05:07:46;;;;;;;10.48;5.53;;;;;;;12.74;84.34;101388.38;5012509;28;20041;-46
2021/10/15 05:10:14;;;;;;;10.77;5.82;;;;;;;12.71;84.16;101385.38;5017917;28;20042;-48
2021/10/15 05:12:42;;;;;;;14.00;5.53;;;;;;;12.70;85.11;101367.31;5000629;28;20044;-48
2021/10/15 05:15:11;;;;;;;14.10;5.22;;;;;;;12.71;85.49;101374.44;5002324;28;20295;-48
2021/10/15 05:17:57;;;;;;;10.90;5.60;;;;;;;12.74;84.74;101380.16;5014439;28;20500;-48
2021/10/15 05:20:25;;;;;;;10.27;5.22;;;;;;;12.74;85.22;101371.97;5017797;28;20049;-49
2021/10/15 05:22:53;;;;;;;11.13;5.43;;;;;;;12.76;85.53;101374.44;5005693;28;20447;-47
2021/10/15 05:25:20;;;;;;;11.90;5.60;;;;;;;12.74;85.48;101369.22;5004670;28;20042;-48
2021/10/15 05:27:48;;;;;;;11.20;6.30;;;;;;;12.72;86.17;101371.44;5017387;28;20046;-47
2021/10/15 05:30:15;;;;;;;13.32;6.25;;;;;;;12.71;85.77;101374.44;5017529;28;20053;-45
2021/10/15 05:32:43;;;;;;;12.95;6.55;;;;;;;12.68;86.29;101383.19;5011672;28;20034;-49
2021/10/15 05:35:11;;;;;;;11.90;6.03;;;;;;;12.66;86.50;101377.97;5005266;28;20042;-49
2021/10/15 05:37:40;;;;;;;12.80;6.30;;;;;;;12.66;86.43;101386.16;5013709;28;20096;-47
2021/10/15 05:40:08;;;;;;;15.30;6.18;;;;;;;12.69;86.35;101382.88;5013799;28;20050;-48
2021/10/15 05:42:35;;;;;;;11.10;5.88;;;;;;;12.74;85.79;101373.88;5016141;28;20073;-47
2021/10/15 05:45:03;;;;;;;12.70;5.28;;;;;;;12.71;86.44;101386.19;5002784;28;20058;-44
2021/10/15 05:47:31;;;;;;;12.75;5.43;;;;;;;12.75;86.30;101381.84;5009755;28;20061;-47
2021/10/15 05:50:00;;;;;;;11.48;6.28;;;;;;;12.78;86.35;101375.81;5014464;28;20046;-47
2021/10/15 05:52:34;;;;;;;11.43;5.43;;;;;;;12.79;85.83;101377.47;5010335;28;20046;-48
2021/10/15 06:00:25;;;;;;;11.82;6.10;;;;;;;12.77;86.32;101374.19;5014304;28;20049;-49
2021/10/15 06:02:53;;;;;;;10.63;5.18;;;;;;;12.78;86.53;101372.25;5006419;28;20034;-47
2021/10/15 06:16:37;;;;;;;19.05;7.15;;;;;;;12.82;87.44;101365.19;4995668;28;20046;-48
2021/10/15 06:19:07;;;;;;;13.93;6.40;;;;;;;12.78;87.14;101369.53;5006206;28;20054;-48
2021/10/15 06:21:35;;;;;;;10.30;5.25;;;;;;;12.79;87.68;101369.28;5008431;28;20065;-48
2021/10/15 06:24:03;;;;;;;11.63;6.00;;;;;;;12.74;87.37;101374.69;5001511;28;20046;-47
2021/10/15 06:26:31;;;;;;;16.75;6.10;;;;;;;12.69;87.62;101377.41;5011010;28;20488;-49
2021/10/15 06:28:58;;;;;;;12.20;5.18;;;;;;;12.71;87.38;101372.50;5001232;28;20056;-48
2021/10/15 06:31:28;;;;;;;14.25;7.07;;;;;;;12.67;88.10;101373.31;5010757;28;20054;-46
2021/10/15 06:33:57;;;;;;;10.55;5.45;;;;;;;12.74;87.73;101368.41;5001742;28;20045;-48
2021/10/15 06:36:24;;;;;;;7.88;3.75;;;;;;;12.74;88.18;101366.50;5009349;28;20141;-48
2021/10/15 06:38:52;;;;;;;10.82;5.65;;;;;;;12.77;88.60;101374.19;5004873;28;20061;-47
2021/10/15 06:41:20;;;;;;;11.80;5.75;;;;;;;12.74;88.42;101369.22;5011232;28;20145;-46
2021/10/15 06:43:48;;;;;;;14.00;7.50;;;;;;;12.76;88.99;101378.00;5001116;28;20045;-48
2021/10/15 06:46:15;;;;;;;11.35;6.60;;;;;;;12.74;88.91;101391.09;5003724;28;20046;-48
2021/10/15 06:48:43;;;;;;;14.10;6.93;;;;;;;12.70;88.46;101391.91;5009779;28;20056;-49
2021/10/15 06:51:31;;;;;;;9.75;5.90;;;;;;;12.69;88.48;101382.88;5002109;28;20501;-48
2021/10/15 06:54:18;;;;;;;11.50;5.45;;;;;;;12.81;89.26;101379.09;4993014;28;20131;-48
2021/10/15 06:57:06;;;;;;;12.02;6.15;;;;;;;12.77;88.69;101384.28;5011931;28;20042;-47
2021/10/15 06:59:53;;;;;;;14.77;6.50;;;;;;;12.75;89.45;101397.41;4991232;28;20394;-48
2021/10/15 07:02:21;;;;;;;12.02;6.75;;;;;;;12.78;89.44;101394.97;4996386;28;20045;-48
2021/10/15 07:04:48;;;;;;;12.13;6.53;;;;;;;12.74;89.12;101396.56;4998378;28;20053;-48
2021/10/15 07:07:16;;;;;;;13.02;7.15;;;;;;;12.71;89.61;101397.13;4998343;28;20050;-48
2021/10/15 07:09:43;;;;;;;12.73;7.03;;;;;;;12.72;89.51;101403.41;4999525;28;20062;-48
2021/10/15 07:12:11;;;;;;;13.27;6.95;;;;;;;12.70;89.95;101403.69;4997160;28;20046;-48
2021/10/15 07:14:38;;;;;;;13.57;7.53;;;;;;;12.70;89.81;101411.91;5000611;28;20051;-48
2021/10/15 07:17:07;;;;;;;13.30;7.07;;;;;;;12.72;90.56;101404.25;5008892;28;20042;-48
2021/10/15 07:19:35;;;;;;;9.32;5.47;;;;;;;12.77;90.90;101407.00;5009837;28;20045;-49
2021/10/15 07:22:02;;;;;;;15.55;7.82;;;;;;;12.75;91.13;101425.59;5004406;28;20042;-49
2021/10/15 07:24:34;;;;;;;13.40;6.47;;;;;;;12.75;91.48;101424.75;5012449;28;20046;-54
2021/10/15 07:27:02;;;;;;;13.85;6.07;;;;;;;12.76;91.66;101427.22;4991700;28;20042;-48
2021/10/15 07:29:29;;;;;;;12.77;7.20;;;;;;;12.71;92.13;101419.00;5000370;28;20069;-51
2021/10/15 07:31:57;;;;;;;14.27;6.80;;;;;;;12.73;93.21;101422.28;5000417;28;20050;-48
2021/10/15 07:34:24;;;;;;;16.23;7.50;;;;;;;12.68;93.48;101430.47;5000426;28;20038;-48
2021/10/15 07:36:52;;;;;;;16.65;7.88;;;;;;;12.64;94.39;101448.50;5003420;28;20038;-51
2021/10/15 07:39:23;;;;;;;18.48;8.50;;;;;;;12.59;95.16;101453.94;5004534;28;20125;-51
2021/10/15 07:42:24;;;;;;;13.20;7.55;;;;;;;12.55;95.85;101472.78;4925099;29;20047;-50
2021/10/15 07:44:51;;;;;;;15.85;8.20;;;;;;;12.50;96.90;101483.69;4936719;29;20130;-50
2021/10/15 07:47:19;;;;;;;13.32;7.95;;;;;;;12.48;97.73;101485.03;4948280;29;20070;-53
2021/10/15 07:49:46;;;;;;;12.60;7.38;;;;;;;12.49;97.81;101492.16;4929245;29;20412;-52
2021/10/15 07:52:14;;;;;;;12.18;7.25;;;;;;;12.48;98.16;101509.63;4927558;29;20104;-51
2021/10/15 07:54:41;;;;;;;9.77;6.63;;;;;;;12.43;98.69;101520.53;4930954;29;20059;-50
2021/10/15 07:57:12;;;;;;;10.85;6.57;;;;;;;12.41;98.67;101523.56;4945838;29;20047;-51
2021/10/15 07:59:40;;;;;;;9.52;6.45;;;;;;;12.40;99.64;101537.47;4939005;28;20069;-49
2021/10/15 08:02:08;;;;;;;9.70;6.25;;;;;;;12.40;99.23;101532.00;4996468;28;20061;-48
2021/10/15 08:04:36;;;;;;;9.75;6.43;;;;;;;12.41;99.37;101539.09;4997385;28;20038;-49
2021/10/15 08:07:09;;;;;;;9.85;5.65;;;;;;;12.39;99.55;101557.66;4994425;28;20126;-51
2021/10/15 08:09:36;;;;;;;4.05;2.13;;;;;;;12.01;94.44;101556.84;4997809;28;20433;-53
2021/10/15 08:12:04;;;;;;;3.15;1.58;;;;;;;11.80;94.07;101561.25;4994788;28;20046;-53
2021/10/15 08:14:32;;;;;;;5.97;2.03;;;;;;;11.81;95.22;101563.72;4994732;28;20053;-50
2021/10/15 08:17:00;;;;;;;2.03;1.30;;;;;;;11.81;93.37;101569.19;4995316;28;20046;-50
2021/10/15 08:19:41;;;;;;;4.43;1.42;;;;;;;11.82;93.56;101586.38;4999157;28;20041;-52
2021/10/15 08:22:09;;;;;;;5.53;1.75;;;;;;;11.74;90.78;101587.69;4999944;28;20046;-54
2021/10/15 08:24:37;;;;;;;4.00;1.38;;;;;;;11.69;92.10;101593.91;5007036;28;20054;-51
2021/10/15 08:27:05;;;;;;;2.25;1.40;;;;;;;11.71;91.86;101596.34;5011627;28;20113;-50
2021/10/15 08:29:38;;;;;;;5.20;1.63;;;;;;;11.80;93.00;101583.91;5006357;28;20072;-50
2021/10/15 08:32:06;;;;;;;5.55;1.80;;;;;;;11.82;91.07;101592.66;4997901;28;20068;-52
2021/10/15 08:34:35;;;;;;;4.05;1.63;;;;;;;11.83;92.10;101597.03;5011563;28;20038;-54
2021/10/15 08:37:03;;;;;;;6.38;1.75;;;;;;;11.87;92.08;101613.78;4997586;28;20080;-54
2021/10/15 08:39:30;;;;;;;4.45;1.55;;;;;;;11.92;91.59;101611.09;5011625;28;20049;-51
2021/10/15 08:41:59;;;;;;;7.13;1.75;;;;;;;11.98;91.50;101617.41;5011081;28;20046;-54
2021/10/15 08:44:35;;;;;;;2.78;1.30;;;;;;;12.02;91.64;101624.03;5012040;28;20100;-54
2021/10/15 08:47:03;;;;;;;2.53;1.10;;;;;;;12.05;90.94;101615.31;4998783;28;20049;-54
2021/10/15 08:49:51;;;;;;;4.90;2.03;;;;;;;12.10;91.75;101616.19;5004003;28;20416;-51
2021/10/15 08:52:18;;;;;;;4.75;1.60;;;;;;;12.13;91.01;101614.84;5001509;28;20107;-48
2021/10/15 08:54:46;;;;;;;4.45;1.88;;;;;;;12.18;91.77;101608.59;5010987;28;20535;-54
2021/10/15 08:57:14;;;;;;;5.78;2.33;;;;;;;12.24;90.94;101619.34;5001000;28;20508;-52
2021/10/15 08:59:48;;;;;;;4.93;1.55;;;;;;;12.25;90.64;101617.41;5000845;28;20100;-53
2021/10/15 09:02:21;;;;;;;12.48;2.22;;;;;;;12.29;91.12;101624.00;5011533;28;20038;-53
2021/10/15 09:04:55;;;;;;;5.78;1.70;;;;;;;12.33;91.02;101625.13;5001113;28;20057;-54
2021/10/15 09:07:24;;;;;;;6.63;2.20;;;;;;;12.35;90.36;101626.53;5007147;28;20042;-51
2021/10/15 09:10:10;;;;;;;4.65;1.52;;;;;;;12.34;90.84;101627.63;5010976;28;20420;-51
2021/10/15 09:12:45;;;;;;;9.20;2.83;;;;;;;12.36;91.14;101636.38;4995586;28;20049;-50
2021/10/15 09:15:14;;;;;;;4.22;1.88;;;;;;;12.39;91.03;101639.66;5011283;28;20034;-50
2021/10/15 09:17:50;;;;;;;4.28;1.75;;;;;;;12.35;90.53;101640.19;5007603;28;20501;-49
2021/10/15 09:20:32;;;;;;;5.28;1.95;;;;;;;12.34;89.94;101638.53;5006320;28;20064;-51
2021/10/15 09:23:09;;;;;;;6.70;2.10;;;;;;;12.31;89.83;101650.00;5014745;28;20096;-49
2021/10/15 09:25:40;;;;;;;5.75;1.90;;;;;;;12.32;89.95;101650.81;5014661;28;20038;-51
2021/10/15 09:28:19;;;;;;;7.65;2.00;;;;;;;12.35;90.75;101651.09;5002070;28;20089;-47
2021/10/15 09:30:50;;;;;;;6.20;1.80;;;;;;;12.38;91.03;101663.44;5014971;28;20045;-51
2021/10/15 09:33:19;;;;;;;7.53;2.30;;;;;;;12.35;90.86;101672.97;5014332;28;20092;-51
2021/10/15 09:35:47;;;;;;;5.97;2.20;;;;;;;12.33;91.05;101669.66;5014932;28;20046;-50
2021/10/15 09:38:15;;;;;;;6.50;2.35;;;;;;;12.32;90.73;101678.97;5004769;28;20405;-53
2021/10/15 09:40:46;;;;;;;8.75;2.22;;;;;;;12.27;89.43;101678.91;5014711;28;20038;-53
2021/10/15 09:43:15;;;;;;;8.77;2.92;;;;;;;12.21;89.36;101682.66;5014833;28;20042;-50
2021/10/15 09:45:45;;;;;;;10.27;2.45;;;;;;;12.27;89.24;101692.59;4996436;28;20046;-49
2021/10/15 09:48:31;;;;;;;8.68;2.53;;;;;;;12.32;89.70;101695.38;5002633;28;21633;-50
2021/10/15 09:51:21;;;;;;;8.15;2.33;;;;;;;12.38;89.65;101700.88;4989054;28;20508;-53
2021/10/15 09:54:10;;;;;;;8.07;2.50;;;;;;;12.43;89.24;101701.75;5014063;28;20056;-51
2021/10/15 09:56:44;;;;;;;8.18;2.38;;;;;;;12.40;88.40;101706.91;5014415;28;20041;-49
2021/10/15 09:59:13;;;;;;;16.92;2.90;;;;;;;12.36;88.42;101707.44;5011972;28;21103;-50
2021/10/15 10:01:41;;;;;;;9.50;2.40;;;;;;;12.39;89.19;101717.03;5014404;28;20057;-52
2021/10/15 10:04:10;;;;;;;6.47;2.40;;;;;;;12.43;89.62;101712.66;5014277;28;20041;-48
2021/10/15 10:06:38;;;;;;;7.30;2.55;;;;;;;12.53;89.19;101710.06;5014203;28;20050;-51
2021/10/15 10:09:07;;;;;;;7.78;2.60;;;;;;;12.58;88.65;101714.75;5002909;28;20047;-48
2021/10/15 10:11:34;;;;;;;11.30;2.60;;;;;;;12.56;88.45;101719.66;5013070;28;20037;-52
2021/10/15 10:14:18;;;;;;;10.18;2.47;;;;;;;12.52;87.58;101718.50;5012879;28;20046;-50
2021/10/15 10:16:47;;;;;;;8.57;2.58;;;;;;;12.51;87.81;101725.06;5014356;28;20056;-51
2021/10/15 10:19:15;;;;;;;8.13;2.60;;;;;;;12.54;88.04;101721.81;5005530;28;20042;-49
2021/10/15 10:21:44;;;;;;;9.02;3.05;;;;;;;12.59;87.86;101721.84;5012138;28;20030;-50
2021/10/15 10:24:16;;;;;;;7.68;2.78;;;;;;;12.59;87.03;101721.84;5014049;28;20041;-49
2021/10/15 10:26:49;;;;;;;9.13;2.65;;;;;;;12.62;89.29;101729.53;5012585;28;20116;-50
2021/10/15 10:29:19;;;;;;;8.90;2.65;;;;;;;12.60;87.92;101731.69;5005706;28;20089;-55
2021/10/15 10:31:47;;;;;;;11.60;3.08;;;;;;;12.64;88.44;101735.56;5013676;28;20064;-50
2021/10/15 10:34:24;;;;;;;10.10;2.70;;;;;;;12.65;88.39;101730.91;5013573;28;20049;-50
2021/10/15 10:37:13;;;;;;;10.90;2.55;;;;;;;12.68;87.32;101733.97;5012124;28;20121;-50
2021/10/15 10:40:07;;;;;;;17.73;6.78;;;;;;;12.75;87.24;101742.78;5010884;28;20073;-52
2021/10/15 10:43:03;;;;;;;10.27;2.53;;;;;;;12.77;87.41;101740.63;5013624;28;20038;-51
2021/10/15 10:45:31;;;;;;;9.80;2.80;;;;;;;12.82;87.25;101737.09;5013223;28;20077;-48
2021/10/15 10:48:06;;;;;;;12.45;3.00;;;;;;;12.79;85.15;101748.53;5013527;28;20046;-51
2021/10/15 10:50:34;;;;;;;11.75;3.10;;;;;;;12.77;82.74;101751.56;5000110;28;20069;-49
2021/10/15 10:53:03;;;;;;;11.82;2.92;;;;;;;12.77;82.25;101750.72;5012968;28;20038;-50
2021/10/15 10:55:34;;;;;;;15.45;2.95;;;;;;;12.83;82.73;101748.88;5012849;28;20046;-50
2021/10/15 10:58:02;;;;;;;10.18;2.95;;;;;;;12.81;82.49;101757.31;5013321;28;20038;-51
2021/10/15 11:00:31;;;;;;;10.13;3.10;;;;;;;12.86;81.64;101749.16;5000670;28;20050;-51
2021/10/15 11:03:00;;;;;;;11.45;2.85;;;;;;;12.93;79.97;101749.75;5000755;28;20129;-50
2021/10/15 11:05:32;;;;;;;9.98;2.97;;;;;;;12.99;78.02;101745.19;5008753;28;20046;-51
2021/10/15 11:08:24;;;;;;;12.20;2.92;;;;;;;13.05;78.03;101744.13;4988642;28;20046;-50
2021/10/15 11:10:53;;;;;;;10.57;2.90;;;;;;;13.07;77.60;101752.88;5007372;28;20044;-50
2021/10/15 11:13:32;;;;;;;10.90;2.95;;;;;;;13.07;78.59;101750.16;5012079;28;20046;-50
2021/10/15 11:16:00;;;;;;;12.18;3.50;;;;;;;13.04;77.28;101750.69;5012641;28;20030;-50
2021/10/15 11:18:27;;;;;;;14.95;3.10;;;;;;;12.97;75.57;101761.84;5012729;28;20049;-50
2021/10/15 11:20:55;;;;;;;12.45;3.45;;;;;;;13.00;75.52;101757.75;5008859;28;20050;-51
2021/10/15 11:23:23;;;;;;;11.18;2.80;;;;;;;13.02;76.21;101749.31;5011178;28;20040;-51
2021/10/15 11:25:50;;;;;;;10.20;2.50;;;;;;;13.06;75.55;101754.00;5014043;28;20413;-52
2021/10/15 11:28:20;;;;;;;19.02;7.90;;;;;;;13.13;74.99;101760.06;4997435;28;20054;-55
2021/10/15 11:30:49;;;;;;;12.23;3.10;;;;;;;13.16;71.09;101759.53;5012758;28;20038;-52
2021/10/15 11:33:19;;;;;;;11.95;3.13;;;;;;;13.25;72.26;101757.13;5010093;28;20052;-52
2021/10/15 11:35:50;;;;;;;9.95;2.85;;;;;;;13.36;72.11;101769.81;5012537;28;20038;-53
2021/10/15 11:38:22;;;;;;;14.45;5.53;;;;;;;13.39;71.20;101769.28;5012189;28;20038;-52
2021/10/15 11:40:52;;;;;;;7.72;2.58;;;;;;;13.36;71.22;101763.53;5011758;28;20046;-51
2021/10/15 11:43:24;;;;;;;9.43;2.50;;;;;;;13.32;71.30;101774.16;5000643;28;20070;-50
2021/10/15 11:45:53;;;;;;;9.43;3.03;;;;;;;13.27;70.12;101771.41;5012317;28;20492;-53
2021/10/15 11:48:45;;;;;;;10.80;2.65;;;;;;;13.24;71.63;101774.63;5012419;28;20082;-53
2021/10/15 11:51:19;;;;;;;13.38;3.90;;;;;;;13.18;69.72;101779.25;5012554;28;20042;-50
2021/10/15 11:53:55;;;;;;;12.77;2.50;;;;;;;13.13;67.91;101787.44;5004468;28;20038;-53
2021/10/15 11:56:28;;;;;;;9.30;2.60;;;;;;;13.14;67.52;101783.59;4993921;28;20049;-49